Wiota, Iowa
Current Conditions -  °F | °C
As of 4:35 AM on Sunday 21 Dec 2014 (Local Time) from KAIO Reporting Station
Haze Haze  
Wind Chill: 29°   Ceiling: 700
Heat Index: 37°   Visibility: 5mi
Dew Point: 37°   Wind: 15mph
Humidity: 100%   Direction: 190°S
Pressure: 29.95"   Gusts: NA
Location:  41.4°N, 94.89°W
Report Text: KAIO 211035Z AUTO 19013KT 5SM BR OVC007 03/03 A2995 RMK AO2
Loading
Personal Weather Stations






























Interactive Weather Map New forecast layout! Learn more

10-Day Weather Forecast

Advertisements
Track Severe Weather on mobile